createdAt,value
2022-11-24T00:00:27.217Z,12.15
2022-11-24T00:03:01.336Z,10.85
2022-11-24T00:05:38.389Z,11.85
2022-11-24T00:08:12.968Z,8.00
2022-11-24T00:10:46.432Z,10.07
2022-11-24T00:13:20.161Z,13.13
2022-11-24T00:15:55.079Z,11.20
2022-11-24T00:18:28.991Z,10.18
2022-11-24T00:21:02.740Z,10.80
2022-11-24T00:23:37.292Z,12.32
2022-11-24T00:26:13.000Z,12.23
2022-11-24T00:28:48.317Z,14.20
2022-11-24T00:31:25.423Z,13.43
2022-11-24T00:34:01.091Z,10.95
2022-11-24T00:36:36.718Z,10.13
2022-11-24T00:39:13.205Z,12.70
2022-11-24T00:41:46.806Z,11.57
2022-11-24T00:44:20.479Z,16.17
2022-11-24T00:46:55.440Z,13.57
2022-11-24T00:49:29.380Z,17.73
2022-11-24T00:52:02.973Z,15.45
2022-11-24T00:54:36.652Z,9.57
2022-11-24T00:57:10.193Z,13.00
2022-11-24T00:59:43.990Z,17.08
2022-11-24T01:02:19.180Z,12.82
2022-11-24T01:04:53.031Z,19.13
2022-11-24T01:07:26.555Z,16.90
2022-11-24T01:10:00.302Z,14.90
2022-11-24T01:12:33.810Z,16.15
2022-11-24T01:15:08.317Z,11.88
2022-11-24T01:17:43.676Z,13.77
2022-11-24T01:20:17.835Z,10.35
2022-11-24T01:22:51.538Z,12.98
2022-11-24T01:25:25.938Z,13.73
2022-11-24T01:27:59.407Z,16.80
2022-11-24T01:30:33.276Z,11.88
2022-11-24T01:33:08.660Z,16.45
2022-11-24T01:35:42.528Z,13.48
2022-11-24T01:38:16.015Z,11.07
2022-11-24T01:40:49.743Z,13.25
2022-11-24T01:43:23.246Z,13.57
2022-11-24T01:45:58.042Z,18.92
2022-11-24T01:48:38.220Z,17.02
2022-11-24T01:51:15.997Z,13.23
2022-11-24T01:53:55.970Z,12.27
2022-11-24T01:56:31.447Z,12.25
2022-11-24T01:59:07.848Z,11.60
2022-11-24T02:01:41.761Z,13.07
2022-11-24T02:04:20.809Z,18.17
2022-11-24T02:06:57.139Z,11.77
2022-11-24T02:09:35.729Z,16.75
2022-11-24T02:12:10.324Z,24.50
2022-11-24T02:14:45.158Z,13.57
2022-11-24T02:17:18.892Z,16.17
2022-11-24T02:19:57.318Z,21.13
2022-11-24T02:22:42.289Z,12.18
2022-11-24T02:25:24.781Z,9.95
2022-11-24T02:28:01.516Z,14.20
2022-11-24T02:30:35.945Z,13.02
2022-11-24T02:33:11.473Z,17.27
2022-11-24T02:35:45.022Z,12.07
2022-11-24T02:38:18.767Z,10.85
2022-11-24T02:40:52.425Z,13.60
2022-11-24T02:43:30.199Z,10.93
2022-11-24T02:46:03.903Z,15.65
2022-11-24T02:48:37.737Z,11.65
2022-11-24T02:51:11.255Z,13.60
2022-11-24T02:53:45.121Z,11.75
2022-11-24T02:56:18.648Z,8.23
2022-11-24T02:58:53.891Z,12.30
2022-11-24T03:01:27.396Z,17.77
2022-11-24T03:04:01.419Z,8.57
2022-11-24T03:06:34.877Z,9.70
2022-11-24T03:09:08.585Z,12.02
2022-11-24T03:11:42.124Z,9.48
2022-11-24T03:14:17.171Z,15.65
2022-11-24T03:16:50.676Z,10.70
2022-11-24T03:19:24.443Z,13.85
2022-11-24T03:21:57.952Z,12.40
2022-11-24T03:24:31.995Z,14.18
2022-11-24T03:27:05.892Z,9.73
2022-11-24T03:29:40.976Z,13.75
2022-11-24T03:32:14.544Z,15.00
2022-11-24T03:34:48.399Z,11.52
2022-11-24T03:37:22.572Z,13.88
2022-11-24T03:39:56.300Z,14.52
2022-11-24T03:42:29.715Z,11.60
2022-11-24T03:45:38.151Z,11.20
2022-11-24T03:47:59.028Z,12.07
2022-11-24T03:50:32.944Z,16.25
2022-11-24T03:53:06.541Z,10.60
2022-11-24T03:55:40.555Z,14.13
2022-11-24T03:58:14.132Z,14.30
2022-11-24T04:00:51.661Z,12.68
2022-11-24T04:03:25.929Z,16.65
2022-11-24T04:05:59.886Z,12.90
2022-11-24T04:08:33.956Z,14.05
2022-11-24T04:11:08.161Z,15.45
2022-11-24T04:13:40.635Z,10.77
2022-11-24T04:16:15.720Z,16.00
2022-11-24T04:18:49.247Z,15.07
2022-11-24T04:21:23.153Z,17.05
2022-11-24T04:23:56.756Z,15.93
2022-11-24T04:26:30.436Z,13.45
2022-11-24T04:29:03.952Z,13.75
2022-11-24T04:31:39.212Z,13.20
2022-11-24T04:34:12.976Z,14.40
2022-11-24T04:36:46.825Z,14.13
2022-11-24T04:39:25.329Z,11.63
2022-11-24T04:42:02.283Z,14.52
2022-11-24T04:44:36.181Z,12.85
2022-11-24T04:47:16.138Z,14.45
2022-11-24T04:49:49.725Z,13.70
2022-11-24T04:52:25.296Z,15.75
2022-11-24T04:54:58.963Z,11.60
2022-11-24T04:57:32.711Z,14.18
2022-11-24T05:00:07.667Z,16.67
2022-11-24T05:02:43.130Z,18.55
2022-11-24T05:05:16.731Z,18.20
2022-11-24T05:07:50.437Z,16.45
2022-11-24T05:10:36.160Z,16.45
2022-11-24T05:13:12.110Z,12.55
2022-11-24T05:15:45.715Z,13.73
2022-11-24T05:18:20.870Z,15.18
2022-11-24T05:20:54.809Z,13.65
2022-11-24T05:23:28.947Z,9.57
2022-11-24T05:26:03.042Z,20.33
2022-11-24T05:28:36.948Z,16.85
2022-11-24T05:31:10.466Z,15.60
2022-11-24T05:33:45.971Z,11.60
2022-11-24T05:36:33.407Z,19.20
2022-11-24T05:39:07.393Z,10.07
2022-11-24T05:41:42.548Z,14.00
2022-11-24T05:44:16.433Z,13.02
2022-11-24T05:46:50.071Z,16.85
2022-11-24T05:49:25.152Z,20.88
2022-11-24T05:51:58.694Z,17.05
2022-11-24T05:54:32.859Z,15.82
2022-11-24T05:57:06.767Z,16.95
2022-11-24T05:59:40.608Z,15.95
2022-11-24T06:02:14.329Z,17.77
2022-11-24T06:04:49.679Z,19.70
2022-11-24T06:07:23.305Z,15.52
2022-11-24T06:09:57.209Z,19.50
2022-11-24T06:12:30.750Z,16.35
2022-11-24T06:15:05.233Z,13.55
2022-11-24T06:17:39.507Z,14.15
2022-11-24T06:20:14.790Z,16.00
2022-11-24T06:22:49.487Z,16.10
2022-11-24T06:25:23.587Z,17.63
2022-11-24T06:27:57.135Z,15.77
2022-11-24T06:30:31.003Z,18.95
2022-11-24T06:33:04.462Z,16.02
2022-11-24T06:35:39.605Z,18.30
2022-11-24T06:38:13.206Z,20.23
2022-11-24T06:40:46.982Z,12.95
2022-11-24T06:43:20.444Z,20.58
2022-11-24T06:45:54.212Z,19.70
2022-11-24T06:48:28.444Z,20.30
2022-11-24T06:51:05.969Z,13.80
2022-11-24T06:53:41.868Z,20.20
2022-11-24T06:56:29.798Z,17.15
2022-11-24T06:59:03.769Z,18.85
2022-11-24T07:01:37.489Z,19.80
2022-11-24T07:04:11.397Z,21.92
2022-11-24T07:06:46.973Z,18.10
2022-11-24T07:09:20.538Z,16.48
2022-11-24T07:11:56.327Z,14.27
2022-11-24T07:14:29.960Z,24.85
2022-11-24T07:17:04.844Z,21.70
2022-11-24T07:19:38.425Z,20.08
2022-11-24T07:22:13.483Z,17.02
2022-11-24T07:24:47.153Z,24.55
2022-11-24T07:27:20.913Z,30.60
2022-11-24T07:29:54.634Z,22.20
2022-11-24T07:32:29.067Z,20.13
2022-11-24T07:35:04.279Z,19.55
2022-11-24T07:37:39.571Z,18.95
2022-11-24T07:40:13.718Z,14.82
2022-11-24T07:42:47.714Z,17.23
2022-11-24T07:45:21.493Z,23.88
2022-11-24T07:47:55.125Z,25.08
2022-11-24T07:50:28.687Z,20.05
2022-11-24T07:53:05.028Z,15.15
2022-11-24T07:55:38.587Z,18.48
2022-11-24T07:58:12.431Z,25.88
2022-11-24T08:00:45.914Z,24.75
2022-11-24T08:03:19.705Z,20.15
2022-11-24T08:08:51.693Z,23.00
2022-11-24T08:11:25.918Z,19.88
2022-11-24T08:13:59.944Z,24.45
2022-11-24T08:16:33.556Z,18.98
2022-11-24T08:19:07.486Z,26.77
2022-11-24T08:21:41.017Z,20.52
2022-11-24T08:24:16.971Z,15.57
2022-11-24T08:26:50.517Z,21.40
2022-11-24T08:29:24.574Z,20.70
2022-11-24T08:31:58.831Z,21.70
2022-11-24T08:34:32.986Z,21.55
2022-11-24T08:37:07.491Z,23.55
2022-11-24T08:39:42.646Z,20.60
2022-11-24T08:42:16.845Z,22.42
2022-11-24T08:44:56.601Z,18.15
2022-11-24T08:47:32.467Z,22.02
2022-11-24T08:50:07.323Z,26.02
2022-11-24T08:52:41.031Z,25.90
2022-11-24T08:55:16.249Z,18.83
2022-11-24T08:57:49.977Z,29.63
2022-11-24T09:00:23.807Z,19.10
2022-11-24T09:02:58.779Z,25.83
2022-11-24T09:08:27.064Z,24.00
2022-11-24T09:11:04.195Z,24.10
2022-11-24T09:13:38.455Z,19.95
2022-11-24T09:16:15.006Z,21.00
2022-11-24T09:18:49.180Z,19.10
2022-11-24T09:21:24.142Z,17.80
2022-11-24T09:23:58.479Z,22.17
2022-11-24T09:26:35.503Z,20.65
2022-11-24T09:29:09.265Z,18.73
2022-11-24T09:31:42.974Z,18.33
2022-11-24T09:34:17.001Z,23.23
2022-11-24T09:36:51.509Z,28.98
2022-11-24T09:39:25.307Z,15.25
2022-11-24T09:42:08.493Z,25.92
2022-11-24T09:45:03.595Z,22.55
2022-11-24T09:47:49.636Z,15.85
2022-11-24T09:50:25.312Z,27.55
2022-11-24T09:53:05.002Z,17.90
2022-11-24T09:55:41.498Z,19.55
2022-11-24T09:58:36.726Z,21.83
2022-11-24T10:01:17.705Z,19.60
2022-11-24T10:03:53.526Z,25.90
2022-11-24T10:06:30.543Z,19.80
2022-11-24T10:09:14.476Z,25.10
2022-11-24T10:11:57.541Z,15.52
2022-11-24T10:14:52.321Z,22.85
2022-11-24T10:17:40.250Z,24.35
2022-11-24T10:20:23.644Z,25.08
2022-11-24T10:23:20.764Z,24.48
2022-11-24T10:25:58.448Z,26.80
2022-11-24T10:28:39.782Z,30.38
2022-11-24T10:31:22.527Z,23.00
2022-11-24T10:33:58.726Z,21.23
2022-11-24T10:36:41.395Z,20.75
2022-11-24T10:39:21.659Z,19.63
2022-11-24T10:42:01.684Z,27.42
2022-11-24T10:44:35.173Z,18.55
2022-11-24T10:47:19.508Z,19.80
2022-11-24T10:49:59.181Z,27.67
2022-11-24T10:52:41.286Z,22.25
2022-11-24T10:55:14.978Z,25.23
2022-11-24T10:57:48.877Z,20.95
2022-11-24T11:00:34.269Z,26.13
2022-11-24T11:03:18.553Z,28.15
2022-11-24T11:05:53.991Z,27.50
2022-11-24T11:08:29.471Z,23.27
2022-11-24T11:11:21.956Z,20.27
2022-11-24T11:14:03.518Z,24.42
2022-11-24T11:16:40.248Z,23.50
2022-11-24T11:19:48.404Z,23.10
2022-11-24T11:22:28.149Z,22.95
2022-11-24T11:27:39.319Z,22.83
2022-11-24T11:36:18.854Z,24.20
2022-11-24T11:38:52.617Z,23.83
2022-11-24T11:41:31.884Z,30.90
2022-11-24T11:44:23.342Z,21.75
2022-11-24T11:46:59.812Z,22.15
2022-11-24T11:49:33.911Z,19.40
2022-11-24T11:52:32.557Z,25.05
2022-11-24T11:55:23.927Z,22.85
2022-11-24T11:58:08.928Z,26.33
2022-11-24T12:00:49.485Z,23.95
2022-11-24T12:03:44.452Z,28.50
2022-11-24T12:06:33.121Z,24.80
2022-11-24T12:09:21.569Z,30.73
2022-11-24T12:12:10.261Z,21.73
2022-11-24T12:17:34.147Z,21.50
2022-11-24T12:20:23.554Z,24.55
2022-11-24T12:23:09.586Z,18.20
2022-11-24T12:25:51.842Z,22.80
2022-11-24T12:28:38.018Z,29.48
2022-11-24T12:31:22.832Z,26.40
2022-11-24T12:34:25.942Z,25.08
2022-11-24T12:37:14.688Z,25.58
2022-11-24T12:39:56.678Z,27.30
2022-11-24T12:42:43.274Z,33.30
2022-11-24T12:45:18.967Z,24.17
2022-11-24T12:48:09.651Z,27.52
2022-11-24T12:50:45.300Z,26.25
2022-11-24T12:53:24.809Z,29.85
2022-11-24T12:56:06.254Z,27.50
2022-11-24T12:58:50.111Z,28.35
2022-11-24T13:01:34.447Z,25.58
2022-11-24T13:04:19.915Z,20.90
2022-11-24T13:06:59.315Z,26.70
2022-11-24T13:09:33.119Z,20.70
2022-11-24T13:12:11.855Z,22.25
2022-11-24T13:14:49.836Z,19.35
2022-11-24T13:17:33.503Z,18.10
2022-11-24T13:20:23.230Z,25.15
2022-11-24T13:22:59.588Z,25.23
2022-11-24T13:25:34.723Z,22.02
2022-11-24T13:29:01.867Z,25.52
2022-11-24T13:31:41.580Z,20.75
2022-11-24T13:34:49.716Z,20.50
2022-11-24T13:37:51.300Z,14.88
2022-11-24T13:40:59.863Z,23.02
2022-11-24T13:43:37.565Z,23.98
2022-11-24T13:46:11.235Z,22.30
2022-11-24T13:49:01.148Z,16.98
2022-11-24T13:51:34.678Z,16.77
2022-11-24T13:54:11.589Z,18.13
2022-11-24T13:56:45.117Z,30.67
2022-11-24T13:59:28.775Z,22.90
2022-11-24T14:02:05.291Z,27.95
2022-11-24T14:04:45.239Z,17.50
2022-11-24T14:07:19.644Z,22.08
2022-11-24T14:09:54.263Z,17.48
2022-11-24T14:12:31.312Z,21.33
2022-11-24T14:15:23.348Z,27.17
2022-11-24T14:17:56.902Z,18.50
2022-11-24T14:20:32.397Z,24.98
2022-11-24T14:23:09.871Z,25.90
2022-11-24T14:25:49.215Z,20.77
2022-11-24T14:28:26.573Z,23.88
2022-11-24T14:31:08.771Z,24.75
2022-11-24T14:33:42.447Z,24.98
2022-11-24T14:36:18.915Z,18.33
2022-11-24T14:38:52.518Z,17.58
2022-11-24T14:41:28.392Z,25.75
2022-11-24T14:44:07.577Z,21.17
2022-11-24T14:46:41.720Z,25.40
2022-11-24T14:49:21.082Z,26.63
2022-11-24T14:51:59.359Z,25.63
2022-11-24T14:54:33.668Z,28.55
2022-11-24T14:57:07.942Z,22.45
2022-11-24T14:59:41.430Z,24.55
2022-11-24T15:02:44.630Z,20.65
2022-11-24T15:05:18.497Z,21.20
2022-11-24T15:08:02.532Z,24.13
2022-11-24T15:10:38.428Z,25.65
2022-11-24T15:13:19.938Z,27.05
2022-11-24T15:16:01.996Z,24.83
2022-11-24T15:18:43.387Z,20.42
2022-11-24T15:21:19.544Z,27.50
2022-11-24T15:24:15.648Z,30.38
2022-11-24T15:26:49.095Z,33.15
2022-11-24T15:29:22.801Z,20.50
2022-11-24T15:31:56.426Z,20.38
2022-11-24T15:34:30.522Z,27.02
2022-11-24T15:37:04.215Z,26.25
2022-11-24T15:39:39.388Z,17.63
2022-11-24T15:42:13.772Z,21.48
2022-11-24T15:44:47.461Z,27.23
2022-11-24T15:47:20.945Z,21.10
2022-11-24T15:49:54.834Z,26.20
2022-11-24T15:52:28.422Z,26.05
2022-11-24T15:55:04.287Z,25.77
2022-11-24T15:57:37.785Z,24.52
2022-11-24T16:00:15.557Z,23.48
2022-11-24T16:02:49.650Z,26.83
2022-11-24T16:05:23.616Z,27.13
2022-11-24T16:07:57.574Z,33.05
2022-11-24T16:10:36.971Z,30.20
2022-11-24T16:15:44.469Z,23.85
2022-11-24T16:18:18.063Z,18.80
2022-11-24T16:20:51.832Z,16.85
2022-11-24T16:23:25.336Z,23.58
2022-11-24T16:26:00.303Z,27.67
2022-11-24T16:28:35.424Z,25.25
2022-11-24T16:31:09.196Z,31.35
2022-11-24T16:33:44.565Z,36.30
2022-11-24T16:36:18.392Z,21.38
2022-11-24T16:38:51.985Z,32.38
2022-11-24T16:41:27.162Z,21.75
2022-11-24T16:44:00.827Z,34.45
2022-11-24T16:46:34.555Z,29.15
2022-11-24T16:49:10.046Z,27.85
2022-11-24T16:51:43.995Z,27.70
2022-11-24T16:54:17.796Z,26.63
2022-11-24T16:56:52.931Z,22.92
2022-11-24T16:59:26.505Z,22.98
2022-11-24T17:02:00.531Z,32.17
2022-11-24T17:04:34.433Z,34.97
2022-11-24T17:07:08.732Z,24.52
2022-11-24T17:09:42.466Z,35.40
2022-11-24T17:12:17.685Z,30.17
2022-11-24T17:15:16.457Z,27.80
2022-11-24T17:18:08.330Z,25.38
2022-11-24T17:20:38.621Z,36.75
2022-11-24T17:23:12.468Z,26.23
2022-11-24T17:25:46.023Z,22.95
2022-11-24T17:28:21.594Z,33.97
2022-11-24T17:30:55.092Z,31.15
2022-11-24T17:33:29.340Z,31.08
2022-11-24T17:36:04.453Z,28.95
2022-11-24T17:38:38.397Z,38.75
2022-11-24T17:41:12.260Z,30.42
2022-11-24T17:43:50.908Z,28.38
2022-11-24T17:46:25.207Z,34.92
2022-11-24T17:48:59.358Z,34.85
2022-11-24T17:51:33.127Z,30.33
2022-11-24T17:54:24.687Z,26.33
2022-11-24T17:57:00.814Z,25.67
2022-11-24T17:59:36.057Z,28.02
2022-11-24T18:02:11.232Z,33.95
2022-11-24T18:04:45.109Z,30.38
2022-11-24T18:07:19.165Z,22.02
2022-11-24T18:09:53.018Z,30.95
2022-11-24T18:12:27.099Z,26.50
2022-11-24T18:15:02.588Z,32.25
2022-11-24T18:17:36.209Z,23.40
2022-11-24T18:20:10.661Z,30.52
2022-11-24T18:23:04.618Z,28.73
2022-11-24T18:25:38.010Z,23.20
2022-11-24T18:28:11.732Z,21.10
2022-11-24T18:30:47.026Z,29.55
2022-11-24T18:33:21.037Z,22.48
2022-11-24T18:35:58.565Z,24.35
2022-11-24T18:38:32.360Z,20.73
2022-11-24T18:41:08.751Z,27.58
2022-11-24T18:43:42.707Z,30.45
2022-11-24T18:46:19.423Z,28.08
2022-11-24T18:48:53.241Z,20.50
2022-11-24T18:51:27.220Z,28.85
2022-11-24T18:54:03.040Z,27.63
2022-11-24T18:56:36.826Z,37.72
2022-11-24T18:59:10.316Z,37.80
2022-11-24T19:01:46.180Z,23.85
2022-11-24T19:04:19.856Z,26.52
2022-11-24T19:06:53.896Z,28.95
2022-11-24T19:09:27.538Z,23.92
2022-11-24T19:12:01.477Z,22.67
2022-11-24T19:14:35.536Z,24.58
2022-11-24T19:17:10.878Z,28.85
2022-11-24T19:19:44.443Z,22.17
2022-11-24T19:22:18.328Z,25.17
2022-11-24T19:24:51.913Z,23.42
2022-11-24T19:27:25.747Z,33.40
2022-11-24T19:29:59.376Z,26.63
2022-11-24T19:32:34.535Z,24.02
2022-11-24T19:35:08.882Z,21.17
2022-11-24T19:37:42.732Z,28.27
2022-11-24T19:40:16.624Z,25.48
2022-11-24T19:42:50.888Z,26.48
2022-11-24T19:45:24.476Z,30.13
2022-11-24T19:47:59.656Z,24.30
2022-11-24T19:50:33.319Z,15.93
2022-11-24T19:53:07.206Z,24.05
2022-11-24T19:55:40.728Z,33.25
2022-11-24T19:58:14.526Z,33.17
2022-11-24T20:00:48.087Z,27.02
2022-11-24T20:03:23.261Z,28.65
2022-11-24T20:05:57.067Z,29.75
2022-11-24T20:08:31.419Z,23.00
2022-11-24T20:11:05.876Z,24.17
2022-11-24T20:13:41.349Z,23.58
2022-11-24T20:16:17.024Z,23.00
2022-11-24T20:18:52.984Z,23.05
2022-11-24T20:21:31.141Z,26.48
2022-11-24T20:24:06.930Z,28.75
2022-11-24T20:26:42.736Z,40.67
2022-11-24T20:29:19.190Z,30.35
2022-11-24T20:31:54.908Z,33.00
2022-11-24T20:34:30.113Z,28.25
2022-11-24T20:37:03.764Z,23.02
2022-11-24T20:39:37.611Z,28.52
2022-11-24T20:42:11.361Z,24.67
2022-11-24T20:44:45.239Z,26.15
2022-11-24T20:47:18.895Z,32.72
2022-11-24T20:49:53.988Z,29.10
2022-11-24T20:52:27.588Z,28.17
2022-11-24T20:55:03.840Z,24.90
2022-11-24T20:57:37.479Z,22.67
2022-11-24T21:00:12.137Z,23.35
2022-11-24T21:02:45.930Z,26.42
2022-11-24T21:05:21.121Z,25.73
2022-11-24T21:07:54.822Z,22.60
2022-11-24T21:10:28.634Z,22.25
2022-11-24T21:13:02.198Z,24.85
2022-11-24T21:15:35.944Z,23.63
2022-11-24T21:18:09.539Z,24.17
2022-11-24T21:20:44.877Z,21.75
2022-11-24T21:23:20.449Z,23.02
2022-11-24T21:25:54.229Z,26.50
2022-11-24T21:28:28.168Z,22.52
2022-11-24T21:31:05.447Z,26.00
2022-11-24T21:33:41.713Z,27.33
2022-11-24T21:36:19.121Z,23.70
2022-11-24T21:38:53.593Z,24.77
2022-11-24T21:41:29.365Z,27.73
2022-11-24T21:44:03.083Z,29.90
2022-11-24T21:46:43.610Z,29.17
2022-11-24T21:49:19.486Z,25.15
2022-11-24T21:51:55.824Z,24.85
2022-11-24T21:54:29.670Z,26.42
2022-11-24T21:57:03.557Z,29.88
2022-11-24T21:59:37.238Z,26.35
2022-11-24T22:02:13.370Z,23.05
2022-11-24T22:04:47.096Z,27.30
2022-11-24T22:07:22.518Z,27.15
2022-11-24T22:09:56.080Z,27.38
2022-11-24T22:12:30.295Z,33.13
2022-11-24T22:15:03.789Z,35.92
2022-11-24T22:17:37.654Z,24.60
2022-11-24T22:20:11.739Z,29.95
2022-11-24T22:22:46.945Z,31.58
2022-11-24T22:25:20.480Z,31.27
2022-11-24T22:27:54.201Z,28.27
2022-11-24T22:30:27.763Z,43.50
2022-11-24T22:33:01.559Z,37.22
2022-11-24T22:35:35.147Z,33.25
2022-11-24T22:38:10.135Z,30.70
2022-11-24T22:40:43.622Z,31.70
2022-11-24T22:43:22.710Z,30.27
2022-11-24T22:45:56.598Z,40.40
2022-11-24T22:48:30.483Z,49.85
2022-11-24T22:51:05.549Z,74.03
2022-11-24T22:53:41.396Z,61.00
2022-11-24T22:56:14.949Z,73.60
2022-11-24T22:58:48.972Z,78.63
2022-11-24T23:01:24.470Z,78.20
2022-11-24T23:03:58.482Z,55.47
2022-11-24T23:06:33.551Z,30.08
2022-11-24T23:09:11.797Z,47.10
2022-11-24T23:11:45.308Z,62.60
2022-11-24T23:14:20.219Z,63.03
2022-11-24T23:16:54.905Z,49.17
2022-11-24T23:19:29.337Z,62.45
2022-11-24T23:22:02.847Z,41.30
2022-11-24T23:24:38.311Z,65.35
2022-11-24T23:27:11.808Z,57.90
2022-11-24T23:29:45.580Z,37.60
2022-11-24T23:32:19.081Z,33.92
2022-11-24T23:34:52.719Z,35.83
2022-11-24T23:37:39.285Z,33.30
2022-11-24T23:40:14.892Z,28.60
2022-11-24T23:42:48.547Z,28.02
2022-11-24T23:45:22.192Z,35.22
2022-11-24T23:47:55.676Z,31.85
2022-11-24T23:50:29.426Z,32.47
2022-11-24T23:53:03.092Z,31.45
2022-11-24T23:55:38.232Z,33.70
2022-11-24T23:58:11.750Z,33.67
